Aviation Digital Data Service (ADDS)

Output produced by METARs form (1134 UTC 21 February 2018)
found at http://aviationweather.gov/adds/metars/
 
KPHF 201407Z 2014/2112 25004KT 1/4SM -DZ FG VV002 
     FM201500 22004KT 3/4SM BR OVC002 
     FM201600 22006KT 3SM BR OVC005 
     FM201900 21007KT P6SM BKN012 
     FM202100 21007KT P6SM SCT015 
     FM202200 21006KT P6SM SCT150 
     FM210400 20007KT 2SM BR SCT020 
     FM210600 20007KT 1SM BR SCT010